createdAt,value
2022-09-05T00:00:25.060Z,19.20
2022-09-05T00:01:41.320Z,19.10
2022-09-05T00:02:57.467Z,19.10
2022-09-05T00:04:25.119Z,19.10
2022-09-05T00:06:03.529Z,19.10
2022-09-05T00:07:41.229Z,19.10
2022-09-05T00:08:55.812Z,19.10
2022-09-05T00:10:15.029Z,19.10
2022-09-05T00:11:42.548Z,19.10
2022-09-05T00:12:48.082Z,19.10
2022-09-05T00:14:10.164Z,19.00
2022-09-05T00:15:24.039Z,19.00
2022-09-05T00:17:01.471Z,19.00
2022-09-05T00:24:07.571Z,19.00
2022-09-05T00:24:22.898Z,19.00
2022-09-05T00:24:25.692Z,18.90
2022-09-05T00:24:30.243Z,18.90
2022-09-05T00:25:47.507Z,18.90
2022-09-05T00:26:59.540Z,18.80
2022-09-05T00:28:25.947Z,18.80
2022-09-05T00:31:07.326Z,18.80
2022-09-05T00:31:55.844Z,18.80
2022-09-05T00:33:23.181Z,18.70
2022-09-05T00:34:53.888Z,18.70
2022-09-05T00:36:20.377Z,18.70
2022-09-05T00:37:36.798Z,18.70
2022-09-05T00:38:43.718Z,18.70
2022-09-05T00:39:47.692Z,18.60
2022-09-05T00:41:02.354Z,18.60
2022-09-05T00:42:09.201Z,18.60
2022-09-05T00:43:20.437Z,18.60
2022-09-05T00:44:29.998Z,18.60
2022-09-05T00:45:40.987Z,18.60
2022-09-05T00:46:53.804Z,18.60
2022-09-05T00:48:09.224Z,18.60
2022-09-05T00:49:22.590Z,18.60
2022-09-05T00:50:33.723Z,18.60
2022-09-05T00:51:45.771Z,18.70
2022-09-05T00:53:07.549Z,18.70
2022-09-05T00:54:41.360Z,18.80
2022-09-05T00:56:00.551Z,18.80
2022-09-05T00:57:18.752Z,18.90
2022-09-05T00:59:05.059Z,19.00
2022-09-05T01:00:17.996Z,19.00
2022-09-05T01:01:30.827Z,19.10
2022-09-05T01:03:16.832Z,19.20
2022-09-05T01:04:39.459Z,19.20
2022-09-05T01:05:56.275Z,19.30
2022-09-05T01:07:27.423Z,19.30
2022-09-05T01:09:08.064Z,19.40
2022-09-05T01:10:26.030Z,19.40
2022-09-05T01:11:44.946Z,19.40
2022-09-05T01:13:07.159Z,19.40
2022-09-05T01:14:24.991Z,19.50
2022-09-05T01:15:34.466Z,19.50
2022-09-05T01:16:59.150Z,19.50
2022-09-05T01:18:21.238Z,19.60
2022-09-05T01:19:30.625Z,19.60
2022-09-05T01:20:46.693Z,19.60
2022-09-05T01:22:06.324Z,19.60
2022-09-05T01:23:29.203Z,19.70
2022-09-05T01:25:04.588Z,19.70
2022-09-05T01:26:22.244Z,19.70
2022-09-05T01:29:06.482Z,19.70
2022-09-05T01:29:23.514Z,19.70
2022-09-05T01:30:31.826Z,19.80
2022-09-05T01:31:41.975Z,19.80
2022-09-05T01:32:51.918Z,19.80
2022-09-05T01:34:05.854Z,19.80
2022-09-05T01:36:04.732Z,19.80
2022-09-05T01:37:24.963Z,19.80
2022-09-05T01:38:46.941Z,19.90
2022-09-05T01:40:28.156Z,19.90
2022-09-05T01:41:41.124Z,19.90
2022-09-05T01:42:55.883Z,19.90
2022-09-05T01:44:20.541Z,19.90
2022-09-05T01:45:29.539Z,19.90
2022-09-05T01:46:50.806Z,19.90
2022-09-05T01:48:04.237Z,19.90
2022-09-05T01:49:13.616Z,19.90
2022-09-05T01:50:34.033Z,19.90
2022-09-05T01:51:42.300Z,19.90
2022-09-05T01:53:09.947Z,19.90
2022-09-05T01:54:26.225Z,19.90
2022-09-05T01:56:04.431Z,19.90
2022-09-05T01:57:09.966Z,19.90
2022-09-05T01:58:17.686Z,19.90
2022-09-05T01:59:31.515Z,19.90
2022-09-05T02:00:53.645Z,19.90
2022-09-05T02:02:14.473Z,19.90
2022-09-05T02:03:26.184Z,19.90
2022-09-05T02:05:02.209Z,19.90
2022-09-05T02:06:28.147Z,19.90
2022-09-05T02:07:45.216Z,19.90
2022-09-05T02:09:10.629Z,19.90
2022-09-05T02:10:31.877Z,19.90
2022-09-05T02:11:57.970Z,19.90
2022-09-05T02:13:12.382Z,19.90
2022-09-05T02:14:42.354Z,19.90
2022-09-05T02:15:59.556Z,19.90
2022-09-05T02:17:27.223Z,19.80
2022-09-05T02:18:47.635Z,19.80
2022-09-05T02:19:56.525Z,19.80
2022-09-05T02:21:00.752Z,19.80
2022-09-05T02:22:11.308Z,19.70
2022-09-05T02:23:41.664Z,19.70
2022-09-05T02:24:53.282Z,19.70
2022-09-05T02:26:21.500Z,19.70
2022-09-05T02:28:03.557Z,19.60
2022-09-05T02:29:00.093Z,19.60
2022-09-05T02:30:10.123Z,19.60
2022-09-05T02:31:19.585Z,19.60
2022-09-05T02:32:26.754Z,19.60
2022-09-05T02:33:34.348Z,19.60
2022-09-05T02:34:44.100Z,19.60
2022-09-05T02:35:52.614Z,19.60
2022-09-05T02:37:12.415Z,19.60
2022-09-05T02:40:16.881Z,19.70
2022-09-05T02:45:01.378Z,19.60
2022-09-05T02:45:05.998Z,19.60
2022-09-05T02:45:07.953Z,19.70
2022-09-05T02:45:18.299Z,19.70
2022-09-05T02:45:50.883Z,19.60
2022-09-05T02:47:00.137Z,19.60
2022-09-05T02:48:15.931Z,19.60
2022-09-05T02:51:17.239Z,19.60
2022-09-05T02:56:36.243Z,19.60
2022-09-05T02:57:25.779Z,19.60
2022-09-05T02:57:30.360Z,19.60
2022-09-05T02:57:41.588Z,19.60
2022-09-05T02:57:42.484Z,19.60
2022-09-05T02:59:08.593Z,19.60
2022-09-05T03:00:12.007Z,19.50
2022-09-05T03:01:22.687Z,19.50
2022-09-05T03:02:31.385Z,19.50
2022-09-05T03:03:37.334Z,19.40
2022-09-05T03:04:46.194Z,19.40
2022-09-05T03:06:01.392Z,19.40
2022-09-05T03:07:33.105Z,19.40
2022-09-05T03:08:55.449Z,19.40
2022-09-05T03:10:16.951Z,19.30
2022-09-05T03:11:54.935Z,19.30
2022-09-05T03:13:46.353Z,19.30
2022-09-05T03:15:33.274Z,19.30
2022-09-05T03:17:04.644Z,19.20
2022-09-05T03:18:29.607Z,19.20
2022-09-05T03:19:53.999Z,19.20
2022-09-05T03:21:17.493Z,19.20
2022-09-05T03:23:05.667Z,19.20
2022-09-05T03:24:48.200Z,19.20
2022-09-05T03:26:33.104Z,19.20
2022-09-05T03:28:22.190Z,19.20
2022-09-05T03:29:58.315Z,19.20
2022-09-05T03:31:30.761Z,19.10
2022-09-05T03:32:56.534Z,19.10
2022-09-05T03:34:32.116Z,19.10
2022-09-05T03:36:08.842Z,19.10
2022-09-05T03:37:54.445Z,19.10
2022-09-05T03:39:54.287Z,19.10
2022-09-05T03:41:05.895Z,19.10
2022-09-05T03:42:39.700Z,19.10
2022-09-05T03:44:09.185Z,19.10
2022-09-05T03:45:37.753Z,19.00
2022-09-05T03:47:03.916Z,19.00
2022-09-05T03:48:35.929Z,19.00
2022-09-05T03:56:16.106Z,19.00
2022-09-05T03:57:08.459Z,19.00
2022-09-05T03:57:16.673Z,18.90
2022-09-05T03:57:20.403Z,19.00
2022-09-05T03:57:33.762Z,18.90
2022-09-05T03:59:01.000Z,18.90
2022-09-05T04:00:09.354Z,18.90
2022-09-05T04:02:46.513Z,18.90
2022-09-05T04:08:08.030Z,18.90
2022-09-05T04:08:16.454Z,18.90
2022-09-05T04:08:17.763Z,18.90
2022-09-05T04:08:20.701Z,18.90
2022-09-05T04:08:48.804Z,18.90
2022-09-05T04:09:55.936Z,18.80
2022-09-05T04:11:01.726Z,18.80
2022-09-05T04:12:13.352Z,18.80
2022-09-05T04:13:22.158Z,18.80
2022-09-05T04:14:26.911Z,18.80
2022-09-05T04:15:37.234Z,18.80
2022-09-05T04:16:49.603Z,18.80
2022-09-05T04:18:03.833Z,18.80
2022-09-05T04:19:19.754Z,18.80
2022-09-05T04:20:35.302Z,18.80
2022-09-05T04:21:45.830Z,18.80
2022-09-05T04:23:07.167Z,18.70
2022-09-05T04:24:11.683Z,18.70
2022-09-05T04:25:17.689Z,18.70
2022-09-05T04:26:35.190Z,18.70
2022-09-05T04:27:43.645Z,18.70
2022-09-05T04:28:59.505Z,18.70
2022-09-05T04:30:20.055Z,18.70
2022-09-05T04:31:53.305Z,18.70
2022-09-05T04:33:22.260Z,18.60
2022-09-05T04:34:51.164Z,18.60
2022-09-05T04:36:00.025Z,18.60
2022-09-05T04:37:07.642Z,18.60
2022-09-05T04:38:14.443Z,18.60
2022-09-05T04:39:27.080Z,18.60
2022-09-05T04:40:40.433Z,18.60
2022-09-05T04:41:45.112Z,18.60
2022-09-05T04:42:49.193Z,18.50
2022-09-05T04:43:56.311Z,18.50
2022-09-05T04:45:03.713Z,18.50
2022-09-05T04:46:18.759Z,18.50
2022-09-05T04:47:25.250Z,18.50
2022-09-05T04:48:34.220Z,18.50
2022-09-05T04:49:44.306Z,18.50
2022-09-05T04:51:04.150Z,18.50
2022-09-05T04:52:51.310Z,18.50
2022-09-05T04:54:32.891Z,18.50
2022-09-05T04:55:41.178Z,18.50
2022-09-05T04:56:54.155Z,18.50
2022-09-05T04:58:00.082Z,18.50
2022-09-05T05:01:54.457Z,18.50
2022-09-05T05:06:03.698Z,18.50
2022-09-05T05:06:08.358Z,18.50
2022-09-05T05:06:18.352Z,18.50
2022-09-05T05:06:18.702Z,18.50
2022-09-05T05:06:44.114Z,18.50
2022-09-05T05:07:54.164Z,18.50
2022-09-05T05:09:01.028Z,18.50
2022-09-05T05:13:00.716Z,18.50
2022-09-05T05:17:55.705Z,18.50
2022-09-05T05:17:56.011Z,18.50
2022-09-05T05:18:06.724Z,18.50
2022-09-05T05:18:12.355Z,18.50
2022-09-05T05:18:13.212Z,18.50
2022-09-05T05:19:18.889Z,18.50
2022-09-05T05:20:40.421Z,18.60
2022-09-05T05:21:50.895Z,18.60
2022-09-05T05:23:08.010Z,18.60
2022-09-05T05:24:15.395Z,18.60
2022-09-05T05:25:18.184Z,18.70
2022-09-05T05:26:24.322Z,18.70
2022-09-05T05:27:37.181Z,18.70
2022-09-05T05:28:57.247Z,18.70
2022-09-05T05:30:02.751Z,18.70
2022-09-05T05:31:12.670Z,18.80
2022-09-05T05:32:33.253Z,18.90
2022-09-05T05:33:46.791Z,19.00
2022-09-05T05:34:53.290Z,19.30
2022-09-05T05:35:58.332Z,19.50
2022-09-05T05:37:05.287Z,19.70
2022-09-05T05:38:26.842Z,19.90
2022-09-05T05:39:30.533Z,20.10
2022-09-05T05:40:43.934Z,20.40
2022-09-05T05:41:56.204Z,20.70
2022-09-05T05:43:14.510Z,20.90
2022-09-05T05:44:20.104Z,21.20
2022-09-05T05:45:26.626Z,21.40
2022-09-05T05:46:33.961Z,21.60
2022-09-05T05:47:41.700Z,21.80
2022-09-05T05:48:56.999Z,21.90
2022-09-05T05:50:04.381Z,22.00
2022-09-05T05:51:34.639Z,22.10
2022-09-05T05:53:28.939Z,22.20
2022-09-05T05:54:47.735Z,22.20
2022-09-05T05:56:13.816Z,22.20
2022-09-05T05:57:36.633Z,22.20
2022-09-05T05:59:06.035Z,22.10
2022-09-05T06:00:24.538Z,22.10
2022-09-05T06:02:08.703Z,22.00
2022-09-05T06:03:43.002Z,22.00
2022-09-05T06:05:22.457Z,21.90
2022-09-05T06:06:38.262Z,21.90
2022-09-05T06:10:10.509Z,21.90
2022-09-05T06:14:48.507Z,21.90
2022-09-05T06:14:50.317Z,21.90
2022-09-05T06:15:01.625Z,21.90
2022-09-05T06:15:31.291Z,22.00
2022-09-05T06:17:05.053Z,22.00
2022-09-05T06:18:45.961Z,22.10
2022-09-05T06:22:04.921Z,22.10
2022-09-05T06:22:20.551Z,22.10
2022-09-05T06:24:06.752Z,22.10
2022-09-05T06:25:44.406Z,22.10
2022-09-05T06:27:15.149Z,22.20
2022-09-05T06:28:25.591Z,22.30
2022-09-05T06:29:55.747Z,22.40
2022-09-05T06:31:30.562Z,22.50
2022-09-05T06:32:58.109Z,22.60
2022-09-05T06:34:35.044Z,22.80
2022-09-05T06:35:47.806Z,23.20
2022-09-05T06:36:59.490Z,23.70
2022-09-05T06:38:14.207Z,24.10
2022-09-05T06:39:23.649Z,24.60
2022-09-05T06:40:33.157Z,25.10
2022-09-05T06:41:44.973Z,25.60
2022-09-05T06:43:13.533Z,26.00
2022-09-05T06:44:41.588Z,26.40
2022-09-05T06:46:55.232Z,26.70
2022-09-05T06:47:48.468Z,27.00
2022-09-05T06:49:29.861Z,27.20
2022-09-05T06:51:07.749Z,27.30
2022-09-05T06:52:51.501Z,27.50
2022-09-05T06:54:59.583Z,27.70
2022-09-05T06:56:25.613Z,28.00
2022-09-05T06:57:44.310Z,28.20
2022-09-05T06:59:20.598Z,28.40
2022-09-05T07:00:24.795Z,28.50
2022-09-05T07:01:53.828Z,28.70
2022-09-05T07:03:22.669Z,28.90
2022-09-05T07:05:23.739Z,29.10
2022-09-05T07:05:59.264Z,29.30
2022-09-05T07:07:09.053Z,29.50
2022-09-05T07:08:35.323Z,29.70
2022-09-05T07:09:53.789Z,29.80
2022-09-05T07:11:11.480Z,29.90
2022-09-05T07:12:23.552Z,30.00
2022-09-05T07:13:33.495Z,30.20
2022-09-05T07:14:46.189Z,30.30
2022-09-05T07:15:54.437Z,30.40
2022-09-05T07:17:02.797Z,30.60
2022-09-05T07:18:13.684Z,30.70
2022-09-05T07:19:27.426Z,30.90
2022-09-05T07:21:15.656Z,31.10
2022-09-05T07:22:47.358Z,31.30
2022-09-05T07:24:05.794Z,31.50
2022-09-05T07:25:18.474Z,31.50
2022-09-05T07:26:51.879Z,31.60
2022-09-05T07:28:25.986Z,31.60
2022-09-05T07:29:22.007Z,31.40
2022-09-05T07:30:26.100Z,31.30
2022-09-05T07:31:37.520Z,31.10
2022-09-05T07:32:44.448Z,30.90
2022-09-05T07:34:21.350Z,30.70
2022-09-05T07:35:29.320Z,30.60
2022-09-05T07:36:39.947Z,30.40
2022-09-05T07:37:44.660Z,30.30
2022-09-05T07:39:07.087Z,30.30
2022-09-05T07:40:25.072Z,30.20
2022-09-05T07:41:31.542Z,30.10
2022-09-05T07:42:38.747Z,30.00
2022-09-05T07:43:46.554Z,29.90
2022-09-05T07:44:51.832Z,29.80
2022-09-05T07:46:11.435Z,29.70
2022-09-05T07:47:21.494Z,29.80
2022-09-05T07:48:34.346Z,30.20
2022-09-05T07:49:56.590Z,30.60
2022-09-05T07:56:48.019Z,32.00
2022-09-05T07:56:53.746Z,31.20
2022-09-05T07:57:00.799Z,33.70
2022-09-05T07:57:08.356Z,32.80
2022-09-05T07:58:21.498Z,35.30
2022-09-05T07:59:26.022Z,36.10
2022-09-05T08:00:31.314Z,36.50
2022-09-05T08:01:39.731Z,37.00
2022-09-05T08:02:46.941Z,37.40
2022-09-05T08:03:57.331Z,37.90
2022-09-05T08:05:07.296Z,38.30
2022-09-05T08:06:18.423Z,38.70
2022-09-05T08:07:50.080Z,39.00
2022-09-05T08:09:21.512Z,39.40
2022-09-05T08:10:31.445Z,39.70
2022-09-05T08:11:53.953Z,40.00
2022-09-05T08:13:24.307Z,40.40
2022-09-05T08:14:44.795Z,40.70
2022-09-05T08:16:13.100Z,41.10
2022-09-05T08:18:26.467Z,41.80
2022-09-05T08:19:47.810Z,42.10
2022-09-05T08:20:53.124Z,42.30
2022-09-05T08:21:56.079Z,42.50
2022-09-05T08:23:07.715Z,42.70
2022-09-05T08:24:14.455Z,42.90
2022-09-05T08:25:18.571Z,43.00
2022-09-05T08:26:31.467Z,43.10
2022-09-05T08:27:45.540Z,43.20
2022-09-05T08:29:21.436Z,43.30
2022-09-05T08:30:28.062Z,43.30
2022-09-05T08:31:41.972Z,43.40
2022-09-05T08:32:48.930Z,43.50
2022-09-05T08:33:56.426Z,43.60
2022-09-05T08:35:06.255Z,43.70
2022-09-05T08:36:14.410Z,43.90
2022-09-05T08:37:21.695Z,44.00
2022-09-05T08:38:35.948Z,44.20
2022-09-05T08:39:44.590Z,44.20
2022-09-05T08:40:58.351Z,44.30
2022-09-05T08:42:18.278Z,44.40
2022-09-05T08:46:37.063Z,44.50
2022-09-05T08:46:43.588Z,44.40
2022-09-05T08:46:49.216Z,44.30
2022-09-05T08:47:59.421Z,44.20
2022-09-05T08:49:50.522Z,44.00
2022-09-05T08:51:08.105Z,43.80
2022-09-05T08:52:15.280Z,43.50
2022-09-05T08:53:46.396Z,43.40
2022-09-05T08:55:06.822Z,43.40
2022-09-05T08:56:20.872Z,43.50
2022-09-05T08:57:53.479Z,43.70
2022-09-05T08:59:28.499Z,43.90
2022-09-05T09:00:24.444Z,44.20
2022-09-05T09:01:36.787Z,44.40
2022-09-05T09:03:07.295Z,44.60
2022-09-05T09:04:17.182Z,45.00
2022-09-05T09:06:17.198Z,45.20
2022-09-05T09:07:47.554Z,45.60
2022-09-05T09:09:05.725Z,45.90
2022-09-05T09:13:12.103Z,46.80
2022-09-05T09:14:36.757Z,47.10
2022-09-05T09:15:42.091Z,47.50
2022-09-05T09:17:57.282Z,48.00
2022-09-05T09:19:09.525Z,48.30
2022-09-05T09:20:33.506Z,48.60
2022-09-05T09:21:42.660Z,48.90
2022-09-05T09:22:53.217Z,49.20
2022-09-05T09:24:07.963Z,49.50
2022-09-05T09:25:18.398Z,49.70
2022-09-05T09:26:29.063Z,49.90
2022-09-05T09:27:56.087Z,50.10
2022-09-05T09:29:07.031Z,50.40
2022-09-05T09:30:10.300Z,50.60
2022-09-05T09:31:17.819Z,50.80
2022-09-05T09:32:24.420Z,51.00
2022-09-05T09:33:37.142Z,51.10
2022-09-05T09:34:53.625Z,51.30
2022-09-05T09:36:07.771Z,51.50
2022-09-05T09:37:50.509Z,51.60
2022-09-05T09:39:37.467Z,51.80
2022-09-05T09:41:01.001Z,52.00
2022-09-05T09:42:33.543Z,52.30
2022-09-05T09:43:55.254Z,52.50
2022-09-05T09:45:51.488Z,52.70
2022-09-05T09:46:54.093Z,52.90
2022-09-05T09:48:32.656Z,53.10
2022-09-05T09:49:56.976Z,53.20
2022-09-05T09:51:26.955Z,53.30
2022-09-05T09:52:48.868Z,53.30
2022-09-05T09:54:16.377Z,53.40
2022-09-05T09:55:41.621Z,53.40
2022-09-05T09:57:12.525Z,53.50
2022-09-05T09:58:34.428Z,53.40
2022-09-05T09:59:59.469Z,53.30
2022-09-05T10:01:34.745Z,53.10
2022-09-05T10:08:38.004Z,52.90
2022-09-05T10:10:35.868Z,52.70
2022-09-05T10:10:45.726Z,52.60
2022-09-05T10:10:49.219Z,52.60
2022-09-05T10:10:58.571Z,52.50
2022-09-05T10:12:33.210Z,52.40
2022-09-05T10:14:06.691Z,52.30
2022-09-05T10:15:31.281Z,52.20
2022-09-05T10:17:20.646Z,52.00
2022-09-05T10:18:41.743Z,51.80
2022-09-05T10:20:18.707Z,51.60
2022-09-05T10:22:34.346Z,51.50
2022-09-05T10:23:44.759Z,51.20
2022-09-05T10:25:12.154Z,50.90
2022-09-05T10:26:57.598Z,50.70
2022-09-05T10:28:09.058Z,50.60
2022-09-05T10:29:36.621Z,50.50
2022-09-05T10:32:10.392Z,50.50
2022-09-05T10:35:06.956Z,50.60
2022-09-05T10:35:10.024Z,50.70
2022-09-05T10:35:22.306Z,50.80
2022-09-05T10:36:28.374Z,50.90
2022-09-05T10:37:38.441Z,50.90
2022-09-05T10:38:46.294Z,50.90
2022-09-05T10:39:51.456Z,50.80
2022-09-05T10:41:21.670Z,50.70
2022-09-05T10:43:39.579Z,50.30
2022-09-05T10:44:49.134Z,50.10
2022-09-05T10:46:01.867Z,49.80
2022-09-05T10:47:13.798Z,49.70
2022-09-05T10:48:23.514Z,49.50
2022-09-05T10:49:30.093Z,49.40
2022-09-05T10:50:35.964Z,49.30
2022-09-05T10:51:44.198Z,49.20
2022-09-05T10:53:03.424Z,49.10
2022-09-05T10:54:22.750Z,49.00
2022-09-05T10:55:30.474Z,48.90
2022-09-05T10:56:40.809Z,48.80
2022-09-05T10:57:57.473Z,48.80
2022-09-05T11:01:48.569Z,48.80
2022-09-05T11:02:21.798Z,48.70
2022-09-05T11:02:29.399Z,48.60
2022-09-05T11:03:41.614Z,48.60
2022-09-05T11:04:51.586Z,48.70
2022-09-05T11:05:57.897Z,48.80
2022-09-05T11:07:05.417Z,48.90
2022-09-05T11:08:11.787Z,49.00
2022-09-05T11:09:23.851Z,48.90
2022-09-05T11:10:33.081Z,48.80
2022-09-05T11:11:46.287Z,48.60
2022-09-05T11:13:06.507Z,48.40
2022-09-05T11:14:28.794Z,48.10
2022-09-05T11:15:38.727Z,47.80
2022-09-05T11:16:51.885Z,47.50
2022-09-05T11:17:58.417Z,47.20
2022-09-05T11:19:05.871Z,47.00
2022-09-05T11:20:41.792Z,46.70
2022-09-05T11:22:06.496Z,46.60
2022-09-05T11:23:22.288Z,46.40
2022-09-05T11:24:32.807Z,46.20
2022-09-05T11:25:40.385Z,46.10
2022-09-05T11:27:23.838Z,46.00
2022-09-05T11:28:16.225Z,46.00
2022-09-05T11:29:23.707Z,46.10
2022-09-05T11:30:30.392Z,46.20
2022-09-05T11:31:59.192Z,46.30
2022-09-05T11:39:46.309Z,46.40
2022-09-05T11:39:48.261Z,46.50
2022-09-05T11:39:50.315Z,46.50
2022-09-05T11:39:58.055Z,46.50
2022-09-05T11:41:01.125Z,46.40
2022-09-05T11:42:33.212Z,46.00
2022-09-05T11:44:08.426Z,45.40
2022-09-05T11:45:56.865Z,44.80
2022-09-05T11:47:29.675Z,44.10
2022-09-05T11:49:06.716Z,43.40
2022-09-05T11:50:36.741Z,42.90
2022-09-05T11:52:23.557Z,42.50
2022-09-05T11:53:57.542Z,42.20
2022-09-05T11:55:35.966Z,42.10
2022-09-05T11:57:31.837Z,42.10
2022-09-05T11:58:52.650Z,42.20
2022-09-05T12:00:31.695Z,42.30
2022-09-05T12:01:47.665Z,42.20
2022-09-05T12:03:53.576Z,42.20
2022-09-05T12:05:47.340Z,42.20
2022-09-05T12:06:36.238Z,42.20
2022-09-05T12:07:46.982Z,42.00
2022-09-05T12:08:54.831Z,41.90
2022-09-05T12:10:46.025Z,41.80
2022-09-05T12:11:48.194Z,41.70
2022-09-05T12:13:02.990Z,41.50
2022-09-05T12:14:31.951Z,41.50
2022-09-05T12:15:34.791Z,41.60
2022-09-05T12:16:54.683Z,41.70
2022-09-05T12:18:18.968Z,41.90
2022-09-05T12:19:28.019Z,42.10
2022-09-05T12:20:43.468Z,42.20
2022-09-05T12:22:16.487Z,42.40
2022-09-05T12:23:47.489Z,42.60
2022-09-05T12:26:30.802Z,42.90
2022-09-05T12:27:40.234Z,43.10
2022-09-05T12:29:26.836Z,43.50
2022-09-05T12:29:59.948Z,43.80
2022-09-05T12:32:48.892Z,44.10
2022-09-05T12:36:01.271Z,44.30
2022-09-05T12:36:04.364Z,44.80
2022-09-05T12:36:06.212Z,44.60
2022-09-05T12:40:27.568Z,45.00
2022-09-05T12:40:35.685Z,45.10
2022-09-05T12:41:37.924Z,45.20
2022-09-05T12:42:15.103Z,45.40
2022-09-05T12:44:37.178Z,45.40
2022-09-05T12:44:45.833Z,45.40
2022-09-05T12:45:57.326Z,45.40
2022-09-05T12:47:16.839Z,45.30
2022-09-05T12:48:27.430Z,45.20
2022-09-05T12:49:47.422Z,45.10
2022-09-05T12:50:58.584Z,45.00
2022-09-05T12:52:04.086Z,44.90
2022-09-05T12:53:10.119Z,44.80
2022-09-05T12:54:24.834Z,44.60
2022-09-05T12:55:40.641Z,44.40
2022-09-05T12:59:25.024Z,44.20
2022-09-05T13:02:26.459Z,44.00
2022-09-05T13:03:01.667Z,43.60
2022-09-05T13:03:09.053Z,43.20
2022-09-05T13:03:12.650Z,42.80
2022-09-05T13:04:26.821Z,42.30
2022-09-05T13:06:57.364Z,41.50
2022-09-05T13:08:03.023Z,41.20
2022-09-05T13:09:10.387Z,40.90
2022-09-05T13:14:37.057Z,40.70
2022-09-05T13:14:50.749Z,40.50
2022-09-05T13:14:55.027Z,40.30
2022-09-05T13:15:07.500Z,40.10
2022-09-05T13:16:22.821Z,40.00
2022-09-05T13:17:37.111Z,40.00
2022-09-05T13:18:48.541Z,40.00
2022-09-05T13:19:54.843Z,40.00
2022-09-05T13:21:05.335Z,40.00
2022-09-05T13:22:12.337Z,40.10
2022-09-05T13:23:20.262Z,40.20
2022-09-05T13:24:30.771Z,40.40
2022-09-05T13:25:37.309Z,40.60
2022-09-05T13:26:43.151Z,40.80
2022-09-05T13:27:56.708Z,41.10
2022-09-05T13:29:10.967Z,41.30
2022-09-05T13:31:53.434Z,41.60
2022-09-05T13:37:58.029Z,42.80
2022-09-05T13:37:58.667Z,42.20
2022-09-05T13:38:05.945Z,41.90
2022-09-05T13:38:06.456Z,42.60
2022-09-05T13:39:33.162Z,43.00
2022-09-05T13:40:40.623Z,42.90
2022-09-05T13:41:45.158Z,42.70
2022-09-05T13:42:59.928Z,42.60
2022-09-05T13:44:26.496Z,42.40
2022-09-05T13:45:35.213Z,42.10
2022-09-05T13:46:58.615Z,41.80
2022-09-05T13:48:28.371Z,41.50
2022-09-05T13:49:35.229Z,41.20
2022-09-05T13:50:39.442Z,40.90
2022-09-05T13:51:46.030Z,40.70
2022-09-05T13:52:52.810Z,40.50
2022-09-05T13:54:16.446Z,40.30
2022-09-05T13:55:26.160Z,40.10
2022-09-05T13:56:31.256Z,39.90
2022-09-05T13:57:39.152Z,39.70
2022-09-05T13:58:56.591Z,39.50
2022-09-05T14:00:43.302Z,39.30
2022-09-05T14:02:29.175Z,39.10
2022-09-05T14:04:00.631Z,38.80
2022-09-05T14:05:20.787Z,38.60
2022-09-05T14:06:48.912Z,38.40
2022-09-05T14:08:34.739Z,38.20
2022-09-05T14:09:52.723Z,38.10
2022-09-05T14:11:44.888Z,38.00
2022-09-05T14:12:56.308Z,37.90
2022-09-05T14:14:11.467Z,37.80
2022-09-05T14:15:25.415Z,37.80
2022-09-05T14:16:33.221Z,37.70
2022-09-05T14:17:52.759Z,37.60
2022-09-05T14:19:15.519Z,37.60
2022-09-05T14:20:37.240Z,37.50
2022-09-05T14:21:42.733Z,37.40
2022-09-05T14:22:50.026Z,37.40
2022-09-05T14:23:57.638Z,37.30
2022-09-05T14:25:00.418Z,37.30
2022-09-05T14:26:05.421Z,37.30
2022-09-05T14:27:13.933Z,37.30
2022-09-05T14:28:22.789Z,37.20
2022-09-05T14:29:33.270Z,37.20
2022-09-05T14:37:34.212Z,37.20
2022-09-05T14:37:34.499Z,37.20
2022-09-05T14:37:53.212Z,37.10
2022-09-05T14:38:00.022Z,37.20
2022-09-05T14:41:08.537Z,37.00
2022-09-05T14:42:35.337Z,36.80
2022-09-05T14:44:11.170Z,36.80
2022-09-05T14:45:46.113Z,36.70
2022-09-05T14:47:32.312Z,36.70
2022-09-05T14:48:56.561Z,36.60
2022-09-05T14:50:16.404Z,36.50
2022-09-05T14:51:29.961Z,36.50
2022-09-05T15:02:48.566Z,36.20
2022-09-05T15:02:53.582Z,36.30
2022-09-05T15:02:54.897Z,36.30
2022-09-05T15:03:12.434Z,36.20
2022-09-05T15:06:28.206Z,36.20
2022-09-05T15:07:38.101Z,36.20
2022-09-05T15:12:15.012Z,36.20
2022-09-05T15:12:18.301Z,36.30
2022-09-05T15:12:23.268Z,36.20
2022-09-05T15:13:02.582Z,36.20
2022-09-05T15:14:07.460Z,36.20
2022-09-05T15:15:22.206Z,36.10
2022-09-05T15:16:27.310Z,36.10
2022-09-05T15:17:31.736Z,36.00
2022-09-05T15:18:39.028Z,35.90
2022-09-05T15:20:05.837Z,35.90
2022-09-05T15:21:33.824Z,35.80
2022-09-05T15:22:43.132Z,35.70
2022-09-05T15:23:58.432Z,35.60
2022-09-05T15:25:16.853Z,35.50
2022-09-05T15:26:26.631Z,35.40
2022-09-05T15:27:29.832Z,35.30
2022-09-05T15:28:36.020Z,35.20
2022-09-05T15:29:38.387Z,35.20
2022-09-05T15:30:55.657Z,35.10
2022-09-05T15:32:13.943Z,35.00
2022-09-05T15:33:25.739Z,34.90
2022-09-05T15:34:34.142Z,34.80
2022-09-05T15:35:43.821Z,34.70
2022-09-05T15:36:46.235Z,34.60
2022-09-05T15:37:50.895Z,34.50
2022-09-05T15:38:58.401Z,34.50
2022-09-05T15:40:23.397Z,34.40
2022-09-05T15:41:29.019Z,34.30
2022-09-05T15:42:33.341Z,34.20
2022-09-05T15:43:40.189Z,34.10
2022-09-05T15:45:06.442Z,34.10
2022-09-05T15:46:06.579Z,34.00
2022-09-05T15:47:11.327Z,33.90
2022-09-05T15:48:18.264Z,33.80
2022-09-05T15:49:29.199Z,33.80
2022-09-05T15:51:47.579Z,33.60
2022-09-05T15:52:56.085Z,33.60
2022-09-05T15:53:58.837Z,33.50
2022-09-05T15:55:06.047Z,33.40
2022-09-05T15:56:25.184Z,33.40
2022-09-05T15:57:32.342Z,33.40
2022-09-05T15:58:53.367Z,33.30
2022-09-05T15:59:59.356Z,33.30
2022-09-05T16:01:11.481Z,33.20
2022-09-05T16:02:22.237Z,33.20
2022-09-05T16:06:41.440Z,33.20
2022-09-05T16:10:37.751Z,33.10
2022-09-05T16:10:39.496Z,33.00
2022-09-05T16:10:49.250Z,33.10
2022-09-05T16:10:50.723Z,33.10
2022-09-05T16:12:09.184Z,33.00
2022-09-05T16:13:00.036Z,33.00
2022-09-05T16:14:20.541Z,32.90
2022-09-05T16:19:30.784Z,32.90
2022-09-05T16:22:08.104Z,32.80
2022-09-05T16:23:16.129Z,32.80
2022-09-05T16:23:23.940Z,32.80
2022-09-05T16:23:25.664Z,32.70
2022-09-05T16:23:30.904Z,32.80
2022-09-05T16:24:09.921Z,32.70
2022-09-05T16:25:17.578Z,32.70
2022-09-05T16:26:25.778Z,32.70
2022-09-05T16:27:53.465Z,32.70
2022-09-05T16:28:59.024Z,32.70
2022-09-05T16:30:06.792Z,32.60
2022-09-05T16:31:20.544Z,32.60
2022-09-05T16:32:28.383Z,32.60
2022-09-05T16:33:32.492Z,32.50
2022-09-05T16:34:43.787Z,32.50
2022-09-05T16:35:55.380Z,32.50
2022-09-05T16:37:08.928Z,32.50
2022-09-05T16:38:43.781Z,32.40
2022-09-05T16:39:48.612Z,32.40
2022-09-05T16:40:55.073Z,32.30
2022-09-05T16:42:03.062Z,32.30
2022-09-05T16:43:09.246Z,32.30
2022-09-05T16:44:15.335Z,32.20
2022-09-05T16:45:26.562Z,32.20
2022-09-05T16:46:36.218Z,32.20
2022-09-05T16:47:42.012Z,32.10
2022-09-05T16:48:51.502Z,32.10
2022-09-05T16:50:05.484Z,32.10
2022-09-05T16:51:35.767Z,32.10
2022-09-05T16:52:56.472Z,32.00
2022-09-05T16:54:02.824Z,32.00
2022-09-05T16:55:13.466Z,32.00
2022-09-05T16:56:21.707Z,31.90
2022-09-05T16:57:28.997Z,31.90
2022-09-05T16:58:33.442Z,31.90
2022-09-05T16:59:37.833Z,31.90
2022-09-05T17:00:52.591Z,31.80
2022-09-05T17:02:08.029Z,31.80
2022-09-05T17:03:28.389Z,31.70
2022-09-05T17:04:43.197Z,31.70
2022-09-05T17:06:25.912Z,31.70
2022-09-05T17:07:34.512Z,31.60
2022-09-05T17:08:40.912Z,31.60
2022-09-05T17:09:44.429Z,31.60
2022-09-05T17:10:58.230Z,31.50
2022-09-05T17:12:11.199Z,31.50
2022-09-05T17:13:30.766Z,31.50
2022-09-05T17:14:35.930Z,31.50
2022-09-05T17:15:51.631Z,31.40
2022-09-05T17:16:58.792Z,31.40
2022-09-05T17:18:20.611Z,31.40
2022-09-05T17:19:33.685Z,31.40
2022-09-05T17:20:44.814Z,31.30
2022-09-05T17:24:45.106Z,31.40
2022-09-05T17:27:25.897Z,31.30
2022-09-05T17:29:25.142Z,31.30
2022-09-05T17:29:25.750Z,31.20
2022-09-05T17:29:31.939Z,31.20
2022-09-05T17:29:32.753Z,31.30
2022-09-05T17:32:42.649Z,31.10
2022-09-05T17:33:45.584Z,31.10
2022-09-05T17:35:17.274Z,31.00
2022-09-05T17:36:38.465Z,31.00
2022-09-05T17:38:11.088Z,31.00
2022-09-05T17:39:44.634Z,31.00
2022-09-05T17:41:03.356Z,30.90
2022-09-05T17:42:16.982Z,30.90
2022-09-05T17:43:28.836Z,30.80
2022-09-05T17:44:44.743Z,30.80